sensor_id;sensor_type;location;lat;lon;timestamp;pressure;altitude;pressure_sealevel;temperature;humidity
33454;BME280;39400;49.744;7.012;2023-08-07T00:02:05;95831.06;;;15.54;100.00
33454;BME280;39400;49.744;7.012;2023-08-07T00:04:31;95835.22;;;15.26;100.00
33454;BME280;39400;49.744;7.012;2023-08-07T00:06:56;95829.59;;;15.49;100.00
33454;BME280;39400;49.744;7.012;2023-08-07T00:09:22;95831.59;;;15.85;100.00
33454;BME280;39400;49.744;7.012;2023-08-07T00:11:47;95824.38;;;15.51;100.00
33454;BME280;39400;49.744;7.012;2023-08-07T00:14:12;95830.13;;;15.80;100.00
33454;BME280;39400;49.744;7.012;2023-08-07T00:16:38;95835.81;;;15.73;100.00
33454;BME280;39400;49.744;7.012;2023-08-07T00:19:03;95828.88;;;15.45;100.00
33454;BME280;39400;49.744;7.012;2023-08-07T00:21:28;95840.72;;;14.86;100.00
33454;BME280;39400;49.744;7.012;2023-08-07T00:23:54;95840.34;;;15.07;100.00
33454;BME280;39400;49.744;7.012;2023-08-07T00:26:19;95840.28;;;15.11;100.00
33454;BME280;39400;49.744;7.012;2023-08-07T00:28:44;95842.22;;;15.70;100.00
33454;BME280;39400;49.744;7.012;2023-08-07T00:31:10;95838.19;;;14.95;100.00
33454;BME280;39400;49.744;7.012;2023-08-07T00:33:35;95840.97;;;14.95;100.00
33454;BME280;39400;49.744;7.012;2023-08-07T00:36:01;95840.09;;;14.78;100.00
33454;BME280;39400;49.744;7.012;2023-08-07T00:38:26;95848.41;;;14.98;100.00
33454;BME280;39400;49.744;7.012;2023-08-07T00:40:53;95844.22;;;15.30;100.00
33454;BME280;39400;49.744;7.012;2023-08-07T00:43:19;95844.94;;;14.94;100.00
33454;BME280;39400;49.744;7.012;2023-08-07T00:45:46;95843.69;;;15.75;100.00
33454;BME280;39400;49.744;7.012;2023-08-07T00:48:12;95840.75;;;15.82;100.00
33454;BME280;39400;49.744;7.012;2023-08-07T00:50:39;95849.59;;;14.77;100.00
33454;BME280;39400;49.744;7.012;2023-08-07T00:53:05;95851.59;;;14.77;100.00
33454;BME280;39400;49.744;7.012;2023-08-07T00:55:31;95846.16;;;14.93;100.00
33454;BME280;39400;49.744;7.012;2023-08-07T00:57:58;95845.22;;;14.80;100.00
33454;BME280;39400;49.744;7.012;2023-08-07T01:00:25;95845.03;;;15.10;100.00
33454;BME280;39400;49.744;7.012;2023-08-07T01:02:52;95841.16;;;14.84;100.00
33454;BME280;39400;49.744;7.012;2023-08-07T01:05:19;95851.09;;;14.62;100.00
33454;BME280;39400;49.744;7.012;2023-08-07T01:07:46;95853.38;;;14.40;100.00
33454;BME280;39400;49.744;7.012;2023-08-07T01:10:12;95854.63;;;14.62;100.00
33454;BME280;39400;49.744;7.012;2023-08-07T01:12:52;95848.50;;;14.47;100.00
33454;BME280;39400;49.744;7.012;2023-08-07T01:15:25;95854.38;;;15.16;100.00
33454;BME280;39400;49.744;7.012;2023-08-07T01:17:55;95852.53;;;14.43;100.00
33454;BME280;39400;49.744;7.012;2023-08-07T01:20:21;95855.66;;;14.92;100.00
33454;BME280;39400;49.744;7.012;2023-08-07T01:22:46;95854.16;;;15.27;100.00
33454;BME280;39400;49.744;7.012;2023-08-07T01:25:12;95861.22;;;14.45;100.00
33454;BME280;39400;49.744;7.012;2023-08-07T01:27:46;95849.19;;;14.98;100.00
33454;BME280;39400;49.744;7.012;2023-08-07T01:30:35;95867.13;;;14.70;100.00
33454;BME280;39400;49.744;7.012;2023-08-07T01:33:14;95857.84;;;14.57;100.00
33454;BME280;39400;49.744;7.012;2023-08-07T01:35:43;95861.81;;;14.80;100.00
33454;BME280;39400;49.744;7.012;2023-08-07T01:38:10;95857.94;;;14.26;100.00
33454;BME280;39400;49.744;7.012;2023-08-07T01:40:37;95864.03;;;14.65;100.00
33454;BME280;39400;49.744;7.012;2023-08-07T01:43:04;95849.84;;;14.39;100.00
33454;BME280;39400;49.744;7.012;2023-08-07T01:45:29;95858.34;;;14.76;100.00
33454;BME280;39400;49.744;7.012;2023-08-07T01:47:55;95856.22;;;15.03;100.00
33454;BME280;39400;49.744;7.012;2023-08-07T01:50:22;95859.31;;;14.15;100.00
33454;BME280;39400;49.744;7.012;2023-08-07T01:52:48;95862.94;;;13.85;100.00
33454;BME280;39400;49.744;7.012;2023-08-07T01:55:17;95853.59;;;14.02;100.00
33454;BME280;39400;49.744;7.012;2023-08-07T01:57:49;95866.25;;;14.26;100.00
33454;BME280;39400;49.744;7.012;2023-08-07T02:00:15;95864.28;;;14.27;100.00
33454;BME280;39400;49.744;7.012;2023-08-07T02:02:40;95867.94;;;14.20;100.00
33454;BME280;39400;49.744;7.012;2023-08-07T02:05:06;95864.81;;;14.18;100.00
33454;BME280;39400;49.744;7.012;2023-08-07T02:07:31;95870.19;;;14.02;100.00
33454;BME280;39400;49.744;7.012;2023-08-07T02:09:57;95864.84;;;14.15;100.00
33454;BME280;39400;49.744;7.012;2023-08-07T02:12:23;95860.28;;;14.55;100.00
33454;BME280;39400;49.744;7.012;2023-08-07T02:14:48;95866.00;;;14.41;100.00
33454;BME280;39400;49.744;7.012;2023-08-07T02:17:14;95873.13;;;14.42;100.00
33454;BME280;39400;49.744;7.012;2023-08-07T02:19:40;95882.88;;;13.99;100.00
33454;BME280;39400;49.744;7.012;2023-08-07T02:22:05;95880.31;;;14.36;100.00
33454;BME280;39400;49.744;7.012;2023-08-07T02:24:30;95875.19;;;14.11;100.00
33454;BME280;39400;49.744;7.012;2023-08-07T02:26:56;95887.03;;;13.53;100.00
33454;BME280;39400;49.744;7.012;2023-08-07T02:29:21;95874.25;;;13.94;100.00
33454;BME280;39400;49.744;7.012;2023-08-07T02:31:47;95879.00;;;14.20;100.00
33454;BME280;39400;49.744;7.012;2023-08-07T02:34:12;95882.22;;;14.15;100.00
33454;BME280;39400;49.744;7.012;2023-08-07T02:36:37;95880.19;;;14.19;100.00
33454;BME280;39400;49.744;7.012;2023-08-07T02:39:04;95890.19;;;14.13;100.00
33454;BME280;39400;49.744;7.012;2023-08-07T02:41:29;95883.16;;;14.05;100.00
33454;BME280;39400;49.744;7.012;2023-08-07T02:43:55;95880.91;;;14.23;100.00
33454;BME280;39400;49.744;7.012;2023-08-07T02:46:20;95889.97;;;14.51;100.00
33454;BME280;39400;49.744;7.012;2023-08-07T02:48:46;95891.78;;;14.61;100.00
33454;BME280;39400;49.744;7.012;2023-08-07T02:51:11;95890.63;;;14.82;100.00
33454;BME280;39400;49.744;7.012;2023-08-07T02:53:36;95892.38;;;15.16;100.00
33454;BME280;39400;49.744;7.012;2023-08-07T02:56:02;95898.97;;;14.32;100.00
33454;BME280;39400;49.744;7.012;2023-08-07T02:58:27;95889.22;;;14.47;100.00
33454;BME280;39400;49.744;7.012;2023-08-07T03:00:53;95894.22;;;14.05;100.00
33454;BME280;39400;49.744;7.012;2023-08-07T03:03:18;95891.19;;;14.50;100.00
33454;BME280;39400;49.744;7.012;2023-08-07T03:05:51;95876.19;;;13.97;100.00
33454;BME280;39400;49.744;7.012;2023-08-07T03:08:17;95884.19;;;14.42;100.00
33454;BME280;39400;49.744;7.012;2023-08-07T03:10:53;95886.75;;;14.80;100.00
33454;BME280;39400;49.744;7.012;2023-08-07T03:13:19;95878.19;;;14.70;100.00
33454;BME280;39400;49.744;7.012;2023-08-07T03:15:44;95891.59;;;14.48;100.00
33454;BME280;39400;49.744;7.012;2023-08-07T03:18:10;95880.22;;;14.43;100.00
33454;BME280;39400;49.744;7.012;2023-08-07T03:20:38;95891.88;;;14.31;100.00
33454;BME280;39400;49.744;7.012;2023-08-07T03:23:04;95881.94;;;15.23;100.00
33454;BME280;39400;49.744;7.012;2023-08-07T03:25:29;95885.41;;;14.64;100.00
33454;BME280;39400;49.744;7.012;2023-08-07T03:27:55;95874.75;;;15.06;100.00
33454;BME280;39400;49.744;7.012;2023-08-07T03:30:21;95876.47;;;15.96;100.00
33454;BME280;39400;49.744;7.012;2023-08-07T03:32:47;95872.28;;;16.40;99.65
33454;BME280;39400;49.744;7.012;2023-08-07T03:35:13;95881.00;;;16.06;100.00
33454;BME280;39400;49.744;7.012;2023-08-07T03:37:39;95881.91;;;14.84;100.00
33454;BME280;39400;49.744;7.012;2023-08-07T03:40:05;95881.72;;;15.54;100.00
33454;BME280;39400;49.744;7.012;2023-08-07T03:42:31;95881.66;;;14.98;100.00
33454;BME280;39400;49.744;7.012;2023-08-07T03:44:57;95878.19;;;14.20;100.00
33454;BME280;39400;49.744;7.012;2023-08-07T03:47:22;95893.81;;;14.07;100.00
33454;BME280;39400;49.744;7.012;2023-08-07T03:49:48;95895.38;;;14.35;100.00
33454;BME280;39400;49.744;7.012;2023-08-07T03:52:14;95899.75;;;14.05;100.00
33454;BME280;39400;49.744;7.012;2023-08-07T03:54:39;95906.44;;;13.80;100.00
33454;BME280;39400;49.744;7.012;2023-08-07T03:57:05;95894.16;;;14.63;100.00
33454;BME280;39400;49.744;7.012;2023-08-07T03:59:31;95899.66;;;14.12;100.00
33454;BME280;39400;49.744;7.012;2023-08-07T04:01:56;95908.16;;;14.25;100.00
33454;BME280;39400;49.744;7.012;2023-08-07T04:04:22;95898.94;;;14.08;100.00
33454;BME280;39400;49.744;7.012;2023-08-07T04:06:47;95895.00;;;14.06;100.00
33454;BME280;39400;49.744;7.012;2023-08-07T04:09:13;95895.72;;;14.13;100.00
33454;BME280;39400;49.744;7.012;2023-08-07T04:11:40;95905.91;;;14.16;100.00
33454;BME280;39400;49.744;7.012;2023-08-07T04:14:05;95895.34;;;14.62;100.00
33454;BME280;39400;49.744;7.012;2023-08-07T04:16:31;95899.88;;;13.98;100.00
33454;BME280;39400;49.744;7.012;2023-08-07T04:18:56;95900.47;;;14.09;100.00
33454;BME280;39400;49.744;7.012;2023-08-07T04:21:22;95903.28;;;14.33;100.00
33454;BME280;39400;49.744;7.012;2023-08-07T04:23:48;95907.53;;;14.88;100.00
33454;BME280;39400;49.744;7.012;2023-08-07T04:26:13;95909.78;;;14.22;100.00
33454;BME280;39400;49.744;7.012;2023-08-07T04:28:39;95905.06;;;14.19;100.00
33454;BME280;39400;49.744;7.012;2023-08-07T04:31:04;95919.50;;;14.07;100.00
33454;BME280;39400;49.744;7.012;2023-08-07T04:33:29;95913.41;;;13.89;100.00
33454;BME280;39400;49.744;7.012;2023-08-07T04:35:55;95909.81;;;13.92;100.00
33454;BME280;39400;49.744;7.012;2023-08-07T04:38:20;95904.50;;;14.04;100.00
33454;BME280;39400;49.744;7.012;2023-08-07T04:40:46;95911.53;;;14.09;100.00
33454;BME280;39400;49.744;7.012;2023-08-07T04:43:13;95921.41;;;13.83;100.00
33454;BME280;39400;49.744;7.012;2023-08-07T04:45:38;95910.97;;;14.21;100.00
33454;BME280;39400;49.744;7.012;2023-08-07T04:48:04;95904.25;;;14.22;100.00
33454;BME280;39400;49.744;7.012;2023-08-07T04:50:29;95912.50;;;13.38;100.00
33454;BME280;39400;49.744;7.012;2023-08-07T04:52:54;95913.25;;;13.42;100.00
33454;BME280;39400;49.744;7.012;2023-08-07T04:55:20;95922.72;;;14.02;100.00
33454;BME280;39400;49.744;7.012;2023-08-07T04:57:45;95913.13;;;14.10;100.00
33454;BME280;39400;49.744;7.012;2023-08-07T05:00:11;95921.59;;;14.23;100.00
33454;BME280;39400;49.744;7.012;2023-08-07T05:02:36;95922.91;;;13.88;100.00
33454;BME280;39400;49.744;7.012;2023-08-07T05:05:02;95906.84;;;14.06;100.00
33454;BME280;39400;49.744;7.012;2023-08-07T05:07:27;95920.00;;;13.68;100.00
33454;BME280;39400;49.744;7.012;2023-08-07T05:09:52;95918.22;;;13.54;100.00
33454;BME280;39400;49.744;7.012;2023-08-07T05:12:18;95912.69;;;13.85;100.00
33454;BME280;39400;49.744;7.012;2023-08-07T05:14:43;95912.28;;;13.55;100.00
33454;BME280;39400;49.744;7.012;2023-08-07T05:17:09;95929.94;;;13.31;100.00
33454;BME280;39400;49.744;7.012;2023-08-07T05:19:34;95924.75;;;13.67;100.00
33454;BME280;39400;49.744;7.012;2023-08-07T05:21:59;95910.19;;;13.94;100.00
33454;BME280;39400;49.744;7.012;2023-08-07T05:24:25;95920.81;;;13.68;100.00
33454;BME280;39400;49.744;7.012;2023-08-07T05:26:50;95925.97;;;14.47;100.00
33454;BME280;39400;49.744;7.012;2023-08-07T05:29:16;95936.19;;;14.00;100.00
33454;BME280;39400;49.744;7.012;2023-08-07T05:31:41;95921.69;;;13.89;100.00
33454;BME280;39400;49.744;7.012;2023-08-07T05:34:07;95925.78;;;14.08;100.00
33454;BME280;39400;49.744;7.012;2023-08-07T05:36:32;95924.00;;;13.94;100.00
33454;BME280;39400;49.744;7.012;2023-08-07T05:38:57;95932.69;;;14.73;100.00
33454;BME280;39400;49.744;7.012;2023-08-07T05:41:23;95934.25;;;14.24;100.00
33454;BME280;39400;49.744;7.012;2023-08-07T05:43:48;95937.31;;;14.30;100.00
33454;BME280;39400;49.744;7.012;2023-08-07T05:46:14;95930.72;;;14.47;100.00
33454;BME280;39400;49.744;7.012;2023-08-07T05:48:39;95940.59;;;13.94;100.00
33454;BME280;39400;49.744;7.012;2023-08-07T05:51:04;95951.38;;;13.85;100.00
33454;BME280;39400;49.744;7.012;2023-08-07T05:56:45;95946.94;;;14.21;100.00
33454;BME280;39400;49.744;7.012;2023-08-07T05:59:10;95963.00;;;14.57;100.00
33454;BME280;39400;49.744;7.012;2023-08-07T06:01:35;95961.63;;;14.92;100.00
33454;BME280;39400;49.744;7.012;2023-08-07T06:04:01;95963.59;;;14.68;100.00
33454;BME280;39400;49.744;7.012;2023-08-07T06:06:26;95967.19;;;15.36;100.00
33454;BME280;39400;49.744;7.012;2023-08-07T06:08:51;95970.16;;;14.27;100.00
33454;BME280;39400;49.744;7.012;2023-08-07T06:11:17;95965.91;;;14.73;100.00
33454;BME280;39400;49.744;7.012;2023-08-07T06:13:42;95973.44;;;14.46;100.00
33454;BME280;39400;49.744;7.012;2023-08-07T06:16:08;95973.50;;;14.69;100.00
33454;BME280;39400;49.744;7.012;2023-08-07T06:18:33;95974.75;;;15.55;100.00
33454;BME280;39400;49.744;7.012;2023-08-07T06:20:58;95975.28;;;15.27;100.00
33454;BME280;39400;49.744;7.012;2023-08-07T06:23:23;95990.59;;;15.11;100.00
33454;BME280;39400;49.744;7.012;2023-08-07T06:25:49;95987.31;;;15.16;100.00
33454;BME280;39400;49.744;7.012;2023-08-07T06:28:14;95977.06;;;15.37;100.00
33454;BME280;39400;49.744;7.012;2023-08-07T06:30:40;95993.81;;;15.93;100.00
33454;BME280;39400;49.744;7.012;2023-08-07T06:33:06;95984.91;;;15.42;100.00
33454;BME280;39400;49.744;7.012;2023-08-07T06:35:31;95985.19;;;15.04;100.00
33454;BME280;39400;49.744;7.012;2023-08-07T06:38:02;95984.72;;;15.29;100.00
33454;BME280;39400;49.744;7.012;2023-08-07T06:40:27;95987.81;;;14.88;100.00
33454;BME280;39400;49.744;7.012;2023-08-07T06:42:52;96003.88;;;15.63;100.00
33454;BME280;39400;49.744;7.012;2023-08-07T06:45:18;95998.47;;;15.56;100.00
33454;BME280;39400;49.744;7.012;2023-08-07T06:47:43;95990.34;;;14.79;100.00
33454;BME280;39400;49.744;7.012;2023-08-07T06:50:08;95997.78;;;15.52;100.00
33454;BME280;39400;49.744;7.012;2023-08-07T06:52:34;95989.88;;;14.84;100.00
33454;BME280;39400;49.744;7.012;2023-08-07T06:54:59;95999.47;;;14.52;100.00
33454;BME280;39400;49.744;7.012;2023-08-07T06:57:24;95999.38;;;15.06;100.00
33454;BME280;39400;49.744;7.012;2023-08-07T06:59:50;96003.69;;;15.31;100.00
33454;BME280;39400;49.744;7.012;2023-08-07T07:02:15;96003.88;;;15.63;100.00
33454;BME280;39400;49.744;7.012;2023-08-07T07:04:40;95999.88;;;15.25;100.00
33454;BME280;39400;49.744;7.012;2023-08-07T07:07:06;96001.66;;;15.11;100.00
33454;BME280;39400;49.744;7.012;2023-08-07T07:09:31;96010.50;;;15.26;100.00
33454;BME280;39400;49.744;7.012;2023-08-07T07:11:56;96004.75;;;16.00;98.51
33454;BME280;39400;49.744;7.012;2023-08-07T07:14:22;96004.88;;;15.53;99.89
33454;BME280;39400;49.744;7.012;2023-08-07T07:16:47;95998.75;;;15.42;99.41
33454;BME280;39400;49.744;7.012;2023-08-07T07:19:12;96010.94;;;15.25;100.00
33454;BME280;39400;49.744;7.012;2023-08-07T07:21:38;96003.00;;;14.80;100.00
33454;BME280;39400;49.744;7.012;2023-08-07T07:24:03;96015.22;;;15.06;100.00
33454;BME280;39400;49.744;7.012;2023-08-07T07:26:29;96004.56;;;15.04;100.00
33454;BME280;39400;49.744;7.012;2023-08-07T07:28:54;96014.59;;;15.61;99.70
33454;BME280;39400;49.744;7.012;2023-08-07T07:31:19;96012.09;;;15.71;98.13
33454;BME280;39400;49.744;7.012;2023-08-07T07:33:45;96016.09;;;15.69;100.00
33454;BME280;39400;49.744;7.012;2023-08-07T07:36:15;96014.41;;;15.52;100.00
33454;BME280;39400;49.744;7.012;2023-08-07T07:38:41;96016.16;;;15.42;100.00
33454;BME280;39400;49.744;7.012;2023-08-07T07:41:06;96015.72;;;16.07;97.40
33454;BME280;39400;49.744;7.012;2023-08-07T07:43:31;96022.47;;;15.43;100.00
33454;BME280;39400;49.744;7.012;2023-08-07T07:45:57;96024.38;;;16.09;98.11
33454;BME280;39400;49.744;7.012;2023-08-07T07:48:22;96022.53;;;15.83;97.10
33454;BME280;39400;49.744;7.012;2023-08-07T07:50:47;96016.41;;;15.72;99.28
33454;BME280;39400;49.744;7.012;2023-08-07T07:53:13;96034.94;;;16.34;96.61
33454;BME280;39400;49.744;7.012;2023-08-07T07:55:38;96011.81;;;16.41;94.30
33454;BME280;39400;49.744;7.012;2023-08-07T07:58:03;96026.88;;;15.84;96.98
33454;BME280;39400;49.744;7.012;2023-08-07T08:00:28;96034.06;;;16.01;95.25
33454;BME280;39400;49.744;7.012;2023-08-07T08:02:54;96034.78;;;16.05;95.88
33454;BME280;39400;49.744;7.012;2023-08-07T08:05:19;96027.13;;;16.29;94.04
33454;BME280;39400;49.744;7.012;2023-08-07T08:07:45;96027.00;;;17.05;91.14
33454;BME280;39400;49.744;7.012;2023-08-07T08:10:10;96031.34;;;15.78;93.95
33454;BME280;39400;49.744;7.012;2023-08-07T08:12:36;96046.19;;;16.47;92.14
33454;BME280;39400;49.744;7.012;2023-08-07T08:15:03;96039.91;;;15.87;92.54
33454;BME280;39400;49.744;7.012;2023-08-07T08:17:29;96041.97;;;15.59;95.69
33454;BME280;39400;49.744;7.012;2023-08-07T08:19:54;96048.06;;;16.14;96.55
33454;BME280;39400;49.744;7.012;2023-08-07T08:22:19;96048.34;;;16.39;93.85
33454;BME280;39400;49.744;7.012;2023-08-07T08:24:45;96047.47;;;16.79;91.38
33454;BME280;39400;49.744;7.012;2023-08-07T08:27:10;96046.78;;;16.75;89.45
33454;BME280;39400;49.744;7.012;2023-08-07T08:29:36;96041.22;;;17.07;89.16
33454;BME280;39400;49.744;7.012;2023-08-07T08:32:01;96045.53;;;17.57;87.93
33454;BME280;39400;49.744;7.012;2023-08-07T08:34:45;96045.88;;;17.76;84.59
33454;BME280;39400;49.744;7.012;2023-08-07T08:37:29;96057.78;;;18.05;82.05
33454;BME280;39400;49.744;7.012;2023-08-07T08:39:54;96051.91;;;17.87;81.95
33454;BME280;39400;49.744;7.012;2023-08-07T08:42:20;96054.69;;;17.87;83.40
33454;BME280;39400;49.744;7.012;2023-08-07T08:44:50;96052.88;;;17.02;83.88
33454;BME280;39400;49.744;7.012;2023-08-07T08:47:16;96058.03;;;17.66;83.18
33454;BME280;39400;49.744;7.012;2023-08-07T08:49:49;96050.44;;;17.21;83.31
33454;BME280;39400;49.744;7.012;2023-08-07T08:52:16;96050.31;;;17.57;83.03
33454;BME280;39400;49.744;7.012;2023-08-07T08:54:43;96060.31;;;18.00;81.06
33454;BME280;39400;49.744;7.012;2023-08-07T08:57:09;96053.31;;;17.95;79.81
33454;BME280;39400;49.744;7.012;2023-08-07T08:59:35;96070.66;;;17.38;81.56
33454;BME280;39400;49.744;7.012;2023-08-07T09:02:01;96060.63;;;17.89;80.32
33454;BME280;39400;49.744;7.012;2023-08-07T09:04:26;96076.09;;;17.74;76.18
33454;BME280;39400;49.744;7.012;2023-08-07T09:06:52;96074.25;;;17.22;76.07
33454;BME280;39400;49.744;7.012;2023-08-07T09:09:19;96068.34;;;16.87;77.43
33454;BME280;39400;49.744;7.012;2023-08-07T09:11:46;96060.13;;;17.78;76.12
33454;BME280;39400;49.744;7.012;2023-08-07T09:14:16;96053.69;;;17.81;74.19
33454;BME280;39400;49.744;7.012;2023-08-07T09:16:43;96056.44;;;18.52;73.51
33454;BME280;39400;49.744;7.012;2023-08-07T09:19:08;96056.59;;;17.90;74.28
33454;BME280;39400;49.744;7.012;2023-08-07T09:21:34;96060.28;;;17.25;75.06
33454;BME280;39400;49.744;7.012;2023-08-07T09:23:59;96053.41;;;17.92;74.60
33454;BME280;39400;49.744;7.012;2023-08-07T09:26:25;96059.63;;;17.67;73.73
33454;BME280;39400;49.744;7.012;2023-08-07T09:28:52;96045.84;;;18.34;71.85
33454;BME280;39400;49.744;7.012;2023-08-07T09:31:17;96058.09;;;18.49;71.11
33454;BME280;39400;49.744;7.012;2023-08-07T09:33:46;96064.50;;;17.30;71.29
33454;BME280;39400;49.744;7.012;2023-08-07T09:36:12;96067.41;;;17.72;71.39
33454;BME280;39400;49.744;7.012;2023-08-07T09:38:37;96074.16;;;17.87;70.23
33454;BME280;39400;49.744;7.012;2023-08-07T09:41:03;96080.47;;;18.33;69.01
33454;BME280;39400;49.744;7.012;2023-08-07T09:43:29;96069.41;;;18.84;68.91
33454;BME280;39400;49.744;7.012;2023-08-07T09:46:07;96062.00;;;19.54;68.04
33454;BME280;39400;49.744;7.012;2023-08-07T09:48:39;96075.78;;;18.97;67.00
33454;BME280;39400;49.744;7.012;2023-08-07T09:51:05;96070.88;;;18.89;66.13
33454;BME280;39400;49.744;7.012;2023-08-07T09:53:30;96076.50;;;18.05;67.82
33454;BME280;39400;49.744;7.012;2023-08-07T09:55:56;96074.63;;;18.57;65.88
33454;BME280;39400;49.744;7.012;2023-08-07T09:58:23;96086.44;;;18.19;68.63
33454;BME280;39400;49.744;7.012;2023-08-07T10:00:48;96087.38;;;19.09;67.29
33454;BME280;39400;49.744;7.012;2023-08-07T10:03:15;96085.38;;;18.42;64.86
33454;BME280;39400;49.744;7.012;2023-08-07T10:05:42;96086.88;;;18.17;62.55
33454;BME280;39400;49.744;7.012;2023-08-07T10:08:08;96085.28;;;18.45;62.79
33454;BME280;39400;49.744;7.012;2023-08-07T10:10:34;96089.56;;;17.75;64.38
33454;BME280;39400;49.744;7.012;2023-08-07T10:13:00;96106.31;;;18.34;64.92
33454;BME280;39400;49.744;7.012;2023-08-07T10:15:26;96089.03;;;18.39;64.13
33454;BME280;39400;49.744;7.012;2023-08-07T10:17:52;96089.81;;;19.07;65.19
33454;BME280;39400;49.744;7.012;2023-08-07T10:20:17;96084.56;;;18.83;62.39
33454;BME280;39400;49.744;7.012;2023-08-07T10:22:43;96096.19;;;18.82;62.36
33454;BME280;39400;49.744;7.012;2023-08-07T10:25:09;96089.91;;;19.29;62.74
33454;BME280;39400;49.744;7.012;2023-08-07T10:27:36;96112.03;;;18.56;62.97
33454;BME280;39400;49.744;7.012;2023-08-07T10:30:06;96095.28;;;18.97;61.54
33454;BME280;39400;49.744;7.012;2023-08-07T10:32:32;96095.34;;;19.58;61.38
33454;BME280;39400;49.744;7.012;2023-08-07T10:35:30;96100.16;;;19.57;60.97
33454;BME280;39400;49.744;7.012;2023-08-07T10:38:05;96087.34;;;19.34;61.40
33454;BME280;39400;49.744;7.012;2023-08-07T10:40:31;96087.50;;;19.05;62.60
33454;BME280;39400;49.744;7.012;2023-08-07T10:43:13;96094.75;;;19.03;60.54
33454;BME280;39400;49.744;7.012;2023-08-07T10:45:41;96105.09;;;19.28;61.55
33454;BME280;39400;49.744;7.012;2023-08-07T10:48:08;96092.78;;;19.63;59.51
33454;BME280;39400;49.744;7.012;2023-08-07T10:53:51;96098.38;;;19.38;61.27
33454;BME280;39400;49.744;7.012;2023-08-07T10:56:38;96092.34;;;19.52;59.54
33454;BME280;39400;49.744;7.012;2023-08-07T10:59:10;96095.38;;;19.32;59.99
33454;BME280;39400;49.744;7.012;2023-08-07T11:04:12;96097.22;;;19.74;58.70
33454;BME280;39400;49.744;7.012;2023-08-07T11:06:38;96098.09;;;19.83;58.12
33454;BME280;39400;49.744;7.012;2023-08-07T11:09:06;96112.34;;;18.99;59.85
33454;BME280;39400;49.744;7.012;2023-08-07T11:11:44;96094.66;;;19.79;58.79
33454;BME280;39400;49.744;7.012;2023-08-07T11:14:15;96093.34;;;19.71;59.18
33454;BME280;39400;49.744;7.012;2023-08-07T11:16:41;96103.53;;;20.00;57.00
33454;BME280;39400;49.744;7.012;2023-08-07T11:19:06;96108.25;;;19.77;56.95
33454;BME280;39400;49.744;7.012;2023-08-07T11:21:33;96106.25;;;20.12;57.04
33454;BME280;39400;49.744;7.012;2023-08-07T11:23:59;96111.31;;;20.05;56.02
33454;BME280;39400;49.744;7.012;2023-08-07T11:26:24;96114.22;;;20.01;57.90
33454;BME280;39400;49.744;7.012;2023-08-07T11:28:50;96115.72;;;20.15;57.41
33454;BME280;39400;49.744;7.012;2023-08-07T11:31:17;96116.28;;;20.45;57.42
33454;BME280;39400;49.744;7.012;2023-08-07T11:33:43;96106.66;;;20.89;58.22
33454;BME280;39400;49.744;7.012;2023-08-07T11:36:13;96113.91;;;20.87;56.91
33454;BME280;39400;49.744;7.012;2023-08-07T11:38:40;96111.19;;;20.96;57.79
33454;BME280;39400;49.744;7.012;2023-08-07T11:41:07;96095.66;;;20.29;55.75
33454;BME280;39400;49.744;7.012;2023-08-07T11:43:35;96113.78;;;20.90;55.86
33454;BME280;39400;49.744;7.012;2023-08-07T11:46:04;96117.44;;;20.34;55.66
33454;BME280;39400;49.744;7.012;2023-08-07T11:48:31;96120.41;;;20.40;55.29
33454;BME280;39400;49.744;7.012;2023-08-07T11:50:58;96125.91;;;19.74;55.71
33454;BME280;39400;49.744;7.012;2023-08-07T11:53:28;96113.56;;;20.54;56.81
33454;BME280;39400;49.744;7.012;2023-08-07T11:55:58;96108.84;;;20.29;55.87
33454;BME280;39400;49.744;7.012;2023-08-07T11:58:25;96119.91;;;19.63;55.19
33454;BME280;39400;49.744;7.012;2023-08-07T12:00:52;96121.88;;;20.45;54.78
33454;BME280;39400;49.744;7.012;2023-08-07T12:03:30;96112.50;;;20.38;54.94
33454;BME280;39400;49.744;7.012;2023-08-07T12:05:57;96124.22;;;21.30;54.32
33454;BME280;39400;49.744;7.012;2023-08-07T12:08:23;96116.16;;;20.70;54.74
33454;BME280;39400;49.744;7.012;2023-08-07T12:10:50;96117.34;;;21.22;54.93
33454;BME280;39400;49.744;7.012;2023-08-07T12:13:16;96114.78;;;21.06;54.76
33454;BME280;39400;49.744;7.012;2023-08-07T12:15:41;96109.78;;;20.70;53.95
33454;BME280;39400;49.744;7.012;2023-08-07T12:18:07;96108.38;;;21.27;53.49
33454;BME280;39400;49.744;7.012;2023-08-07T12:20:33;96123.53;;;21.48;52.23
33454;BME280;39400;49.744;7.012;2023-08-07T12:22:58;96113.72;;;20.81;51.89
33454;BME280;39400;49.744;7.012;2023-08-07T12:25:23;96111.81;;;21.00;52.10
33454;BME280;39400;49.744;7.012;2023-08-07T12:27:48;96110.53;;;20.92;52.46
33454;BME280;39400;49.744;7.012;2023-08-07T12:30:14;96108.56;;;21.02;52.61
33454;BME280;39400;49.744;7.012;2023-08-07T12:32:40;96121.72;;;20.92;51.26
33454;BME280;39400;49.744;7.012;2023-08-07T12:35:05;96115.78;;;21.21;51.02
33454;BME280;39400;49.744;7.012;2023-08-07T12:37:31;96112.59;;;20.70;51.54
33454;BME280;39400;49.744;7.012;2023-08-07T12:39:56;96121.31;;;21.03;52.07
33454;BME280;39400;49.744;7.012;2023-08-07T12:42:21;96114.53;;;21.13;52.89
33454;BME280;39400;49.744;7.012;2023-08-07T12:44:47;96097.66;;;21.94;53.30
33454;BME280;39400;49.744;7.012;2023-08-07T12:47:12;96110.97;;;21.62;49.81
33454;BME280;39400;49.744;7.012;2023-08-07T12:49:37;96104.47;;;21.25;51.24
33454;BME280;39400;49.744;7.012;2023-08-07T12:52:03;96109.00;;;21.72;50.87
33454;BME280;39400;49.744;7.012;2023-08-07T12:54:28;96107.19;;;21.47;50.98
33454;BME280;39400;49.744;7.012;2023-08-07T12:56:54;96111.47;;;21.29;50.00
33454;BME280;39400;49.744;7.012;2023-08-07T12:59:19;96113.16;;;20.86;50.64
33454;BME280;39400;49.744;7.012;2023-08-07T13:01:44;96112.59;;;21.01;50.96